sensor_id;sensor_type;location;lat;lon;timestamp;temperature;humidity
32366;DHT22;18837;46.832;16.838;2024-03-06T00:01:05;10.40;98.00
32366;DHT22;18837;46.832;16.838;2024-03-06T00:03:36;10.30;97.90
32366;DHT22;18837;46.832;16.838;2024-03-06T00:06:02;10.30;98.10
32366;DHT22;18837;46.832;16.838;2024-03-06T00:08:28;10.10;97.90
32366;DHT22;18837;46.832;16.838;2024-03-06T00:10:54;10.30;98.00
32366;DHT22;18837;46.832;16.838;2024-03-06T00:13:20;10.30;98.00
32366;DHT22;18837;46.832;16.838;2024-03-06T00:15:46;10.30;97.90
32366;DHT22;18837;46.832;16.838;2024-03-06T00:18:33;10.20;97.90
32366;DHT22;18837;46.832;16.838;2024-03-06T00:21:23;10.20;98.00
32366;DHT22;18837;46.832;16.838;2024-03-06T00:23:48;10.20;98.10
32366;DHT22;18837;46.832;16.838;2024-03-06T00:26:14;10.20;98.00
32366;DHT22;18837;46.832;16.838;2024-03-06T00:28:40;10.20;97.90
32366;DHT22;18837;46.832;16.838;2024-03-06T00:31:06;10.20;98.10
32366;DHT22;18837;46.832;16.838;2024-03-06T00:33:32;10.20;98.00
32366;DHT22;18837;46.832;16.838;2024-03-06T00:35:57;10.20;98.10
32366;DHT22;18837;46.832;16.838;2024-03-06T00:38:29;10.10;98.10
32366;DHT22;18837;46.832;16.838;2024-03-06T00:40:55;10.10;98.20
32366;DHT22;18837;46.832;16.838;2024-03-06T00:43:23;10.10;98.00
32366;DHT22;18837;46.832;16.838;2024-03-06T00:45:48;10.10;98.20
32366;DHT22;18837;46.832;16.838;2024-03-06T00:48:14;10.10;98.10
32366;DHT22;18837;46.832;16.838;2024-03-06T00:50:40;10.10;98.10
32366;DHT22;18837;46.832;16.838;2024-03-06T00:53:24;10.10;98.10
32366;DHT22;18837;46.832;16.838;2024-03-06T00:56:02;10.10;98.40
32366;DHT22;18837;46.832;16.838;2024-03-06T00:58:28;10.10;98.40
32366;DHT22;18837;46.832;16.838;2024-03-06T01:00:54;10.10;98.20
32366;DHT22;18837;46.832;16.838;2024-03-06T01:03:20;10.00;98.20
32366;DHT22;18837;46.832;16.838;2024-03-06T01:05:46;10.00;98.20
32366;DHT22;18837;46.832;16.838;2024-03-06T01:08:12;10.00;98.30
32366;DHT22;18837;46.832;16.838;2024-03-06T01:10:56;10.00;98.10
32366;DHT22;18837;46.832;16.838;2024-03-06T01:13:21;10.00;98.50
32366;DHT22;18837;46.832;16.838;2024-03-06T01:15:47;10.00;98.10
32366;DHT22;18837;46.832;16.838;2024-03-06T01:18:13;10.00;98.00
32366;DHT22;18837;46.832;16.838;2024-03-06T01:20:39;10.00;98.10
32366;DHT22;18837;46.832;16.838;2024-03-06T01:23:06;9.90;98.10
32366;DHT22;18837;46.832;16.838;2024-03-06T01:25:32;9.90;98.10
32366;DHT22;18837;46.832;16.838;2024-03-06T01:28:19;9.90;98.30
32366;DHT22;18837;46.832;16.838;2024-03-06T01:30:57;9.90;98.20
32366;DHT22;18837;46.832;16.838;2024-03-06T01:33:24;9.90;98.30
32366;DHT22;18837;46.832;16.838;2024-03-06T01:35:49;9.90;98.20
32366;DHT22;18837;46.832;16.838;2024-03-06T01:38:15;9.90;98.20
32366;DHT22;18837;46.832;16.838;2024-03-06T01:40:44;9.90;98.30
32366;DHT22;18837;46.832;16.838;2024-03-06T01:43:21;9.90;98.40
32366;DHT22;18837;46.832;16.838;2024-03-06T01:46:00;9.80;98.40
32366;DHT22;18837;46.832;16.838;2024-03-06T01:48:27;9.90;98.50
32366;DHT22;18837;46.832;16.838;2024-03-06T01:50:55;9.90;98.20
32366;DHT22;18837;46.832;16.838;2024-03-06T01:53:22;9.80;98.20
32366;DHT22;18837;46.832;16.838;2024-03-06T01:55:50;9.80;98.20
32366;DHT22;18837;46.832;16.838;2024-03-06T01:58:17;9.80;98.20
32366;DHT22;18837;46.832;16.838;2024-03-06T02:00:52;9.80;98.30
32366;DHT22;18837;46.832;16.838;2024-03-06T02:03:32;9.80;98.40
32366;DHT22;18837;46.832;16.838;2024-03-06T02:06:00;9.80;98.50
32366;DHT22;18837;46.832;16.838;2024-03-06T02:08:27;9.80;98.30
32366;DHT22;18837;46.832;16.838;2024-03-06T02:10:55;9.80;98.20
32366;DHT22;18837;46.832;16.838;2024-03-06T02:13:20;9.70;98.30
32366;DHT22;18837;46.832;16.838;2024-03-06T02:15:46;9.70;98.20
32366;DHT22;18837;46.832;16.838;2024-03-06T02:18:12;9.70;98.20
32366;DHT22;18837;46.832;16.838;2024-03-06T02:20:44;9.70;98.20
32366;DHT22;18837;46.832;16.838;2024-03-06T02:23:11;9.70;98.30
32366;DHT22;18837;46.832;16.838;2024-03-06T02:25:37;9.70;98.20
32366;DHT22;18837;46.832;16.838;2024-03-06T02:28:03;9.70;98.20
32366;DHT22;18837;46.832;16.838;2024-03-06T02:30:29;9.70;98.10
32366;DHT22;18837;46.832;16.838;2024-03-06T02:33:01;9.60;98.30
32366;DHT22;18837;46.832;16.838;2024-03-06T02:35:36;9.60;98.40
32366;DHT22;18837;46.832;16.838;2024-03-06T02:41:32;9.60;98.20
32366;DHT22;18837;46.832;16.838;2024-03-06T02:43:58;9.60;98.10
32366;DHT22;18837;46.832;16.838;2024-03-06T02:46:24;9.60;98.30
32366;DHT22;18837;46.832;16.838;2024-03-06T02:48:51;9.60;98.00
32366;DHT22;18837;46.832;16.838;2024-03-06T02:51:20;9.60;98.40
32366;DHT22;18837;46.832;16.838;2024-03-06T02:53:46;9.60;98.50
32366;DHT22;18837;46.832;16.838;2024-03-06T02:56:27;9.60;98.30
32366;DHT22;18837;46.832;16.838;2024-03-06T02:58:52;9.60;98.30
32366;DHT22;18837;46.832;16.838;2024-03-06T03:01:18;9.60;98.50
32366;DHT22;18837;46.832;16.838;2024-03-06T03:03:44;9.60;98.60
32366;DHT22;18837;46.832;16.838;2024-03-06T03:06:11;9.60;98.40
32366;DHT22;18837;46.832;16.838;2024-03-06T03:08:38;9.50;98.50
32366;DHT22;18837;46.832;16.838;2024-03-06T03:11:32;9.50;98.60
32366;DHT22;18837;46.832;16.838;2024-03-06T03:14:13;9.50;98.20
32366;DHT22;18837;46.832;16.838;2024-03-06T03:16:39;9.50;98.60
32366;DHT22;18837;46.832;16.838;2024-03-06T03:19:04;9.50;98.40
32366;DHT22;18837;46.832;16.838;2024-03-06T03:21:30;9.50;98.50
32366;DHT22;18837;46.832;16.838;2024-03-06T03:23:57;9.50;98.50
32366;DHT22;18837;46.832;16.838;2024-03-06T03:26:23;9.40;98.90
32366;DHT22;18837;46.832;16.838;2024-03-06T03:29:07;9.50;98.50
32366;DHT22;18837;46.832;16.838;2024-03-06T03:31:34;9.50;98.50
32366;DHT22;18837;46.832;16.838;2024-03-06T03:34:01;9.50;98.50
32366;DHT22;18837;46.832;16.838;2024-03-06T03:36:27;9.50;98.30
32366;DHT22;18837;46.832;16.838;2024-03-06T03:38:53;9.50;98.40
32366;DHT22;18837;46.832;16.838;2024-03-06T03:41:19;9.40;98.50
32366;DHT22;18837;46.832;16.838;2024-03-06T03:43:45;9.40;98.40
32366;DHT22;18837;46.832;16.838;2024-03-06T03:46:31;9.40;98.40
32366;DHT22;18837;46.832;16.838;2024-03-06T03:49:12;9.40;98.40
32366;DHT22;18837;46.832;16.838;2024-03-06T03:51:39;9.40;98.60
32366;DHT22;18837;46.832;16.838;2024-03-06T03:54:05;9.40;98.50
32366;DHT22;18837;46.832;16.838;2024-03-06T03:56:32;9.40;98.40
32366;DHT22;18837;46.832;16.838;2024-03-06T03:58:58;9.40;98.70
32366;DHT22;18837;46.832;16.838;2024-03-06T04:01:24;9.40;98.60
32366;DHT22;18837;46.832;16.838;2024-03-06T04:03:56;9.40;98.60
32366;DHT22;18837;46.832;16.838;2024-03-06T04:06:22;9.30;98.70
32366;DHT22;18837;46.832;16.838;2024-03-06T04:08:48;9.40;98.50
32366;DHT22;18837;46.832;16.838;2024-03-06T04:11:14;9.40;98.70
32366;DHT22;18837;46.832;16.838;2024-03-06T04:13:40;9.30;98.60
32366;DHT22;18837;46.832;16.838;2024-03-06T04:16:06;9.30;98.50
32366;DHT22;18837;46.832;16.838;2024-03-06T04:18:56;8.80;98.50
32366;DHT22;18837;46.832;16.838;2024-03-06T04:24:33;9.30;98.60
32366;DHT22;18837;46.832;16.838;2024-03-06T04:26:59;9.30;98.80
32366;DHT22;18837;46.832;16.838;2024-03-06T04:29:24;9.30;98.90
32366;DHT22;18837;46.832;16.838;2024-03-06T04:31:50;9.30;98.70
32366;DHT22;18837;46.832;16.838;2024-03-06T04:34:16;9.30;98.70
32366;DHT22;18837;46.832;16.838;2024-03-06T04:36:41;9.30;98.70
32366;DHT22;18837;46.832;16.838;2024-03-06T04:39:14;9.20;98.70
32366;DHT22;18837;46.832;16.838;2024-03-06T04:41:40;9.20;98.60
32366;DHT22;18837;46.832;16.838;2024-03-06T04:44:06;9.20;98.70
32366;DHT22;18837;46.832;16.838;2024-03-06T04:46:32;9.20;98.80
32366;DHT22;18837;46.832;16.838;2024-03-06T04:48:58;9.20;98.60
32366;DHT22;18837;46.832;16.838;2024-03-06T04:51:24;9.20;98.70
32366;DHT22;18837;46.832;16.838;2024-03-06T04:54:11;9.20;98.80
32366;DHT22;18837;46.832;16.838;2024-03-06T04:56:55;9.20;98.60
32366;DHT22;18837;46.832;16.838;2024-03-06T04:59:28;9.20;98.80
32366;DHT22;18837;46.832;16.838;2024-03-06T05:01:53;9.20;98.50
32366;DHT22;18837;46.832;16.838;2024-03-06T05:04:19;9.20;98.70
32366;DHT22;18837;46.832;16.838;2024-03-06T05:06:46;9.10;98.60
32366;DHT22;18837;46.832;16.838;2024-03-06T05:09:12;9.10;98.70
32366;DHT22;18837;46.832;16.838;2024-03-06T05:11:40;9.10;98.60
32366;DHT22;18837;46.832;16.838;2024-03-06T05:14:12;9.10;98.80
32366;DHT22;18837;46.832;16.838;2024-03-06T05:16:38;9.10;98.70
32366;DHT22;18837;46.832;16.838;2024-03-06T05:19:04;9.10;98.50
32366;DHT22;18837;46.832;16.838;2024-03-06T05:21:32;9.10;98.60
32366;DHT22;18837;46.832;16.838;2024-03-06T05:23:59;9.10;98.80
32366;DHT22;18837;46.832;16.838;2024-03-06T05:26:25;9.10;98.70
32366;DHT22;18837;46.832;16.838;2024-03-06T05:29:21;9.10;98.70
32366;DHT22;18837;46.832;16.838;2024-03-06T05:32:03;9.10;98.70
32366;DHT22;18837;46.832;16.838;2024-03-06T05:34:29;9.00;98.80
32366;DHT22;18837;46.832;16.838;2024-03-06T05:36:55;9.10;98.80
32366;DHT22;18837;46.832;16.838;2024-03-06T05:39:21;9.00;98.50
32366;DHT22;18837;46.832;16.838;2024-03-06T05:41:47;9.00;98.60
32366;DHT22;18837;46.832;16.838;2024-03-06T05:44:13;9.00;98.50
32366;DHT22;18837;46.832;16.838;2024-03-06T05:46:48;9.00;98.70
32366;DHT22;18837;46.832;16.838;2024-03-06T05:49:14;9.00;98.80
32366;DHT22;18837;46.832;16.838;2024-03-06T05:51:40;9.00;98.70
32366;DHT22;18837;46.832;16.838;2024-03-06T05:54:05;9.00;98.90
32366;DHT22;18837;46.832;16.838;2024-03-06T05:56:34;9.00;98.80
32366;DHT22;18837;46.832;16.838;2024-03-06T05:59:00;9.00;99.00
32366;DHT22;18837;46.832;16.838;2024-03-06T06:01:39;9.00;98.90
32366;DHT22;18837;46.832;16.838;2024-03-06T06:04:24;9.00;98.80
32366;DHT22;18837;46.832;16.838;2024-03-06T06:07:06;9.00;98.80
32366;DHT22;18837;46.832;16.838;2024-03-06T06:09:32;9.00;99.00
32366;DHT22;18837;46.832;16.838;2024-03-06T06:11:58;9.00;98.70
32366;DHT22;18837;46.832;16.838;2024-03-06T06:14:25;8.90;98.70
32366;DHT22;18837;46.832;16.838;2024-03-06T06:16:58;8.90;98.20
32366;DHT22;18837;46.832;16.838;2024-03-06T06:19:24;8.90;97.40
32366;DHT22;18837;46.832;16.838;2024-03-06T06:21:56;8.90;98.70
32366;DHT22;18837;46.832;16.838;2024-03-06T06:24:22;8.90;99.10
32366;DHT22;18837;46.832;16.838;2024-03-06T06:26:48;8.90;98.50
32366;DHT22;18837;46.832;16.838;2024-03-06T06:29:14;8.90;98.50
32366;DHT22;18837;46.832;16.838;2024-03-06T06:31:39;8.90;98.70
32366;DHT22;18837;46.832;16.838;2024-03-06T06:34:05;8.90;99.00
32366;DHT22;18837;46.832;16.838;2024-03-06T06:36:45;8.90;98.70
32366;DHT22;18837;46.832;16.838;2024-03-06T06:39:36;8.90;99.10
32366;DHT22;18837;46.832;16.838;2024-03-06T06:42:11;8.90;98.30
32366;DHT22;18837;46.832;16.838;2024-03-06T06:44:37;8.90;98.60
32366;DHT22;18837;46.832;16.838;2024-03-06T06:47:03;9.00;98.70
32366;DHT22;18837;46.832;16.838;2024-03-06T06:49:28;9.00;98.90
32366;DHT22;18837;46.832;16.838;2024-03-06T06:51:54;9.00;98.50
32366;DHT22;18837;46.832;16.838;2024-03-06T06:54:20;9.00;99.00
32366;DHT22;18837;46.832;16.838;2024-03-06T06:56:49;9.00;98.60
32366;DHT22;18837;46.832;16.838;2024-03-06T06:59:16;9.00;98.90
32366;DHT22;18837;46.832;16.838;2024-03-06T07:01:42;9.00;98.80
32366;DHT22;18837;46.832;16.838;2024-03-06T07:04:08;9.10;99.00
32366;DHT22;18837;46.832;16.838;2024-03-06T07:06:34;9.10;99.00
32366;DHT22;18837;46.832;16.838;2024-03-06T07:09:00;9.10;98.80
32366;DHT22;18837;46.832;16.838;2024-03-06T07:11:44;9.10;99.00
32366;DHT22;18837;46.832;16.838;2024-03-06T07:14:30;9.10;98.80
32366;DHT22;18837;46.832;16.838;2024-03-06T07:16:56;9.10;98.70
32366;DHT22;18837;46.832;16.838;2024-03-06T07:19:22;9.10;99.00
32366;DHT22;18837;46.832;16.838;2024-03-06T07:21:47;9.20;99.00
32366;DHT22;18837;46.832;16.838;2024-03-06T07:24:13;9.10;99.00
32366;DHT22;18837;46.832;16.838;2024-03-06T07:26:39;9.20;99.00
32366;DHT22;18837;46.832;16.838;2024-03-06T07:29:06;9.20;98.60
32366;DHT22;18837;46.832;16.838;2024-03-06T07:31:44;9.20;98.90
32366;DHT22;18837;46.832;16.838;2024-03-06T07:34:10;10.20;99.30
32366;DHT22;18837;46.832;16.838;2024-03-06T07:36:36;9.30;99.00
32366;DHT22;18837;46.832;16.838;2024-03-06T07:39:03;9.30;98.90
32366;DHT22;18837;46.832;16.838;2024-03-06T07:41:30;9.30;98.90
32366;DHT22;18837;46.832;16.838;2024-03-06T07:43:58;9.30;99.00
32366;DHT22;18837;46.832;16.838;2024-03-06T07:46:40;9.30;99.20
32366;DHT22;18837;46.832;16.838;2024-03-06T07:49:18;9.30;99.00
32366;DHT22;18837;46.832;16.838;2024-03-06T07:51:44;9.30;99.20
32366;DHT22;18837;46.832;16.838;2024-03-06T07:54:10;9.30;98.80
32366;DHT22;18837;46.832;16.838;2024-03-06T07:56:35;9.30;98.80
32366;DHT22;18837;46.832;16.838;2024-03-06T07:59:01;9.30;99.00
32366;DHT22;18837;46.832;16.838;2024-03-06T08:01:28;9.30;98.80
32366;DHT22;18837;46.832;16.838;2024-03-06T08:04:06;9.40;99.00
32366;DHT22;18837;46.832;16.838;2024-03-06T08:06:32;9.40;99.20
32366;DHT22;18837;46.832;16.838;2024-03-06T08:08:59;9.40;99.10
32366;DHT22;18837;46.832;16.838;2024-03-06T08:11:27;9.40;98.70
32366;DHT22;18837;46.832;16.838;2024-03-06T08:13:59;9.40;98.70
32366;DHT22;18837;46.832;16.838;2024-03-06T08:16:25;9.40;99.10
32366;DHT22;18837;46.832;16.838;2024-03-06T08:18:51;9.40;99.10
32366;DHT22;18837;46.832;16.838;2024-03-06T08:21:35;9.40;98.80
32366;DHT22;18837;46.832;16.838;2024-03-06T08:24:10;9.40;98.90
32366;DHT22;18837;46.832;16.838;2024-03-06T08:26:36;9.40;99.10
32366;DHT22;18837;46.832;16.838;2024-03-06T08:29:03;9.40;98.90
32366;DHT22;18837;46.832;16.838;2024-03-06T08:31:29;9.50;98.80
32366;DHT22;18837;46.832;16.838;2024-03-06T08:33:56;9.50;98.90
32366;DHT22;18837;46.832;16.838;2024-03-06T08:36:22;9.50;98.90
32366;DHT22;18837;46.832;16.838;2024-03-06T08:38:52;9.50;98.80
32366;DHT22;18837;46.832;16.838;2024-03-06T08:41:19;9.50;98.80
32366;DHT22;18837;46.832;16.838;2024-03-06T08:43:45;9.50;98.70
32366;DHT22;18837;46.832;16.838;2024-03-06T08:46:11;9.50;98.70
32366;DHT22;18837;46.832;16.838;2024-03-06T08:48:38;9.50;98.80
32366;DHT22;18837;46.832;16.838;2024-03-06T08:51:04;9.50;98.70
32366;DHT22;18837;46.832;16.838;2024-03-06T08:53:36;9.50;98.50
32366;DHT22;18837;46.832;16.838;2024-03-06T08:56:27;9.60;98.90
32366;DHT22;18837;46.832;16.838;2024-03-06T08:59:36;9.60;98.60
32366;DHT22;18837;46.832;16.838;2024-03-06T09:02:17;9.60;98.70
32366;DHT22;18837;46.832;16.838;2024-03-06T09:04:44;9.60;98.90
32366;DHT22;18837;46.832;16.838;2024-03-06T09:07:11;9.70;98.90
32366;DHT22;18837;46.832;16.838;2024-03-06T09:09:37;9.70;98.70
32366;DHT22;18837;46.832;16.838;2024-03-06T09:12:07;9.70;98.60
32366;DHT22;18837;46.832;16.838;2024-03-06T09:14:41;9.80;98.60
32366;DHT22;18837;46.832;16.838;2024-03-06T09:17:07;9.80;98.50
32366;DHT22;18837;46.832;16.838;2024-03-06T09:19:38;9.80;98.50
32366;DHT22;18837;46.832;16.838;2024-03-06T09:22:04;9.80;98.50
32366;DHT22;18837;46.832;16.838;2024-03-06T09:24:30;9.80;98.40
32366;DHT22;18837;46.832;16.838;2024-03-06T09:26:56;9.90;98.20
32366;DHT22;18837;46.832;16.838;2024-03-06T09:29:34;9.90;98.20
32366;DHT22;18837;46.832;16.838;2024-03-06T09:32:23;10.00;98.40
32366;DHT22;18837;46.832;16.838;2024-03-06T09:34:52;9.90;98.00
32366;DHT22;18837;46.832;16.838;2024-03-06T09:37:18;10.00;98.30
32366;DHT22;18837;46.832;16.838;2024-03-06T09:39:45;10.00;98.40
32366;DHT22;18837;46.832;16.838;2024-03-06T09:42:15;10.10;98.00
32366;DHT22;18837;46.832;16.838;2024-03-06T09:44:40;10.10;98.30
32366;DHT22;18837;46.832;16.838;2024-03-06T09:47:07;10.10;98.00
32366;DHT22;18837;46.832;16.838;2024-03-06T09:49:40;10.20;98.30
32366;DHT22;18837;46.832;16.838;2024-03-06T09:52:06;10.20;98.00
32366;DHT22;18837;46.832;16.838;2024-03-06T09:54:32;10.20;98.20
32366;DHT22;18837;46.832;16.838;2024-03-06T09:56:59;10.30;98.30
32366;DHT22;18837;46.832;16.838;2024-03-06T09:59:25;10.30;97.80
32366;DHT22;18837;46.832;16.838;2024-03-06T10:01:55;10.40;97.30
32366;DHT22;18837;46.832;16.838;2024-03-06T10:04:49;10.40;97.40
32366;DHT22;18837;46.832;16.838;2024-03-06T10:07:33;10.40;97.10
32366;DHT22;18837;46.832;16.838;2024-03-06T10:10:00;10.50;97.40
32366;DHT22;18837;46.832;16.838;2024-03-06T10:12:27;10.50;97.10
32366;DHT22;18837;46.832;16.838;2024-03-06T10:14:54;10.50;97.30
32366;DHT22;18837;46.832;16.838;2024-03-06T10:17:22;10.60;97.20
32366;DHT22;18837;46.832;16.838;2024-03-06T10:19:49;10.60;97.60
32366;DHT22;18837;46.832;16.838;2024-03-06T10:22:29;10.60;97.90
32366;DHT22;18837;46.832;16.838;2024-03-06T10:24:55;10.60;97.70
32366;DHT22;18837;46.832;16.838;2024-03-06T10:27:24;10.70;97.00
32366;DHT22;18837;46.832;16.838;2024-03-06T10:30:05;10.70;97.40
32366;DHT22;18837;46.832;16.838;2024-03-06T10:32:36;10.70;97.30
32366;DHT22;18837;46.832;16.838;2024-03-06T10:35:04;10.70;97.10
32366;DHT22;18837;46.832;16.838;2024-03-06T10:37:54;10.70;96.80
32366;DHT22;18837;46.832;16.838;2024-03-06T10:40:45;10.70;96.80
32366;DHT22;18837;46.832;16.838;2024-03-06T10:43:42;10.70;96.50
32366;DHT22;18837;46.832;16.838;2024-03-06T10:46:11;10.80;96.50
32366;DHT22;18837;46.832;16.838;2024-03-06T10:48:39;10.70;96.90
32366;DHT22;18837;46.832;16.838;2024-03-06T10:51:07;10.70;96.80
32366;DHT22;18837;46.832;16.838;2024-03-06T10:53:36;10.80;96.90
32366;DHT22;18837;46.832;16.838;2024-03-06T10:56:04;10.80;96.90
32366;DHT22;18837;46.832;16.838;2024-03-06T10:58:44;10.80;96.30
32366;DHT22;18837;46.832;16.838;2024-03-06T11:01:12;10.80;97.30
32366;DHT22;18837;46.832;16.838;2024-03-06T11:03:38;10.80;97.30
32366;DHT22;18837;46.832;16.838;2024-03-06T11:06:04;10.90;97.20
32366;DHT22;18837;46.832;16.838;2024-03-06T11:08:32;10.90;97.20
32366;DHT22;18837;46.832;16.838;2024-03-06T11:11:19;10.90;97.40
32366;DHT22;18837;46.832;16.838;2024-03-06T11:14:04;10.80;97.20
32366;DHT22;18837;46.832;16.838;2024-03-06T11:17:09;11.00;97.40
32366;DHT22;18837;46.832;16.838;2024-03-06T11:28:31;11.00;96.40
32366;DHT22;18837;46.832;16.838;2024-03-06T11:31:13;11.00;96.90
32366;DHT22;18837;46.832;16.838;2024-03-06T11:33:46;11.10;96.80
32366;DHT22;18837;46.832;16.838;2024-03-06T11:36:23;11.10;97.00
32366;DHT22;18837;46.832;16.838;2024-03-06T11:39:02;11.10;96.60
32366;DHT22;18837;46.832;16.838;2024-03-06T11:41:30;11.20;96.60
32366;DHT22;18837;46.832;16.838;2024-03-06T11:43:59;11.10;97.10
32366;DHT22;18837;46.832;16.838;2024-03-06T11:47:01;11.20;97.00
32366;DHT22;18837;46.832;16.838;2024-03-06T11:49:55;11.20;97.60
32366;DHT22;18837;46.832;16.838;2024-03-06T11:52:27;11.30;97.50
32366;DHT22;18837;46.832;16.838;2024-03-06T11:54:52;11.20;97.60
32366;DHT22;18837;46.832;16.838;2024-03-06T11:57:19;11.30;97.30
32366;DHT22;18837;46.832;16.838;2024-03-06T11:59:47;11.30;97.30
32366;DHT22;18837;46.832;16.838;2024-03-06T12:02:13;11.30;97.40
32366;DHT22;18837;46.832;16.838;2024-03-06T12:04:40;11.30;97.10
32366;DHT22;18837;46.832;16.838;2024-03-06T12:07:15;11.30;96.50
32366;DHT22;18837;46.832;16.838;2024-03-06T12:09:41;11.30;96.70
32366;DHT22;18837;46.832;16.838;2024-03-06T12:12:08;11.30;97.20
32366;DHT22;18837;46.832;16.838;2024-03-06T12:14:35;11.30;97.00
32366;DHT22;18837;46.832;16.838;2024-03-06T12:17:02;11.40;97.20
32366;DHT22;18837;46.832;16.838;2024-03-06T12:19:35;11.40;96.80
32366;DHT22;18837;46.832;16.838;2024-03-06T12:22:24;11.40;96.80
32366;DHT22;18837;46.832;16.838;2024-03-06T12:27:46;12.20;96.80
32366;DHT22;18837;46.832;16.838;2024-03-06T12:30:12;11.40;96.40
32366;DHT22;18837;46.832;16.838;2024-03-06T12:32:39;11.40;96.40
32366;DHT22;18837;46.832;16.838;2024-03-06T12:35:05;11.40;96.50
32366;DHT22;18837;46.832;16.838;2024-03-06T12:37:32;11.50;96.70
32366;DHT22;18837;46.832;16.838;2024-03-06T12:40:17;11.50;98.00
32366;DHT22;18837;46.832;16.838;2024-03-06T12:42:43;11.50;97.20
32366;DHT22;18837;46.832;16.838;2024-03-06T12:45:12;11.50;97.30
32366;DHT22;18837;46.832;16.838;2024-03-06T12:47:41;11.50;97.50
32366;DHT22;18837;46.832;16.838;2024-03-06T12:50:07;11.50;96.80
32366;DHT22;18837;46.832;16.838;2024-03-06T12:52:37;11.50;96.40
32366;DHT22;18837;46.832;16.838;2024-03-06T12:55:04;11.50;96.80
32366;DHT22;18837;46.832;16.838;2024-03-06T12:57:55;11.50;96.80
32366;DHT22;18837;46.832;16.838;2024-03-06T13:00:33;11.50;96.50
32366;DHT22;18837;46.832;16.838;2024-03-06T13:02:59;11.50;96.60
32366;DHT22;18837;46.832;16.838;2024-03-06T13:05:26;11.50;96.70
32366;DHT22;18837;46.832;16.838;2024-03-06T13:07:51;11.50;96.90
32366;DHT22;18837;46.832;16.838;2024-03-06T13:10:18;11.50;96.70
32366;DHT22;18837;46.832;16.838;2024-03-06T13:12:43;11.60;96.60
32366;DHT22;18837;46.832;16.838;2024-03-06T13:15:15;11.60;96.10
32366;DHT22;18837;46.832;16.838;2024-03-06T13:17:41;11.50;96.30
32366;DHT22;18837;46.832;16.838;2024-03-06T13:20:07;11.50;96.20
32366;DHT22;18837;46.832;16.838;2024-03-06T13:22:40;11.50;96.50
32366;DHT22;18837;46.832;16.838;2024-03-06T13:25:06;11.60;97.30
32366;DHT22;18837;46.832;16.838;2024-03-06T13:27:33;11.50;96.40
32366;DHT22;18837;46.832;16.838;2024-03-06T13:30:05;11.50;96.30
32366;DHT22;18837;46.832;16.838;2024-03-06T13:33:10;11.50;96.20
32366;DHT22;18837;46.832;16.838;2024-03-06T13:35:41;11.50;96.40
32366;DHT22;18837;46.832;16.838;2024-03-06T13:38:08;11.60;96.40
32366;DHT22;18837;46.832;16.838;2024-03-06T13:40:34;11.60;96.40
32366;DHT22;18837;46.832;16.838;2024-03-06T13:43:00;11.60;96.30
32366;DHT22;18837;46.832;16.838;2024-03-06T13:45:26;11.60;96.10
32366;DHT22;18837;46.832;16.838;2024-03-06T13:47:52;11.60;96.30
32366;DHT22;18837;46.832;16.838;2024-03-06T13:50:24;11.60;96.30
32366;DHT22;18837;46.832;16.838;2024-03-06T13:52:51;11.60;96.90
32366;DHT22;18837;46.832;16.838;2024-03-06T13:55:17;11.60;96.50
32366;DHT22;18837;46.832;16.838;2024-03-06T13:57:43;11.60;96.30
32366;DHT22;18837;46.832;16.838;2024-03-06T14:00:10;11.60;96.10
32366;DHT22;18837;46.832;16.838;2024-03-06T14:02:43;11.70;96.50
32366;DHT22;18837;46.832;16.838;2024-03-06T14:05:35;11.70;97.20
32366;DHT22;18837;46.832;16.838;2024-03-06T14:08:01;11.60;96.40
32366;DHT22;18837;46.832;16.838;2024-03-06T14:10:30;11.60;96.00
32366;DHT22;18837;46.832;16.838;2024-03-06T14:13:00;11.60;95.80
32366;DHT22;18837;46.832;16.838;2024-03-06T14:15:26;11.60;96.00
32366;DHT22;18837;46.832;16.838;2024-03-06T14:17:55;11.70;96.30
32366;DHT22;18837;46.832;16.838;2024-03-06T14:20:22;11.60;96.10
32366;DHT22;18837;46.832;16.838;2024-03-06T14:22:48;11.60;96.10
32366;DHT22;18837;46.832;16.838;2024-03-06T14:25:20;11.70;96.30
32366;DHT22;18837;46.832;16.838;2024-03-06T14:27:46;11.70;96.10
32366;DHT22;18837;46.832;16.838;2024-03-06T14:30:13;11.60;95.80
32366;DHT22;18837;46.832;16.838;2024-03-06T14:32:41;11.60;95.60
32366;DHT22;18837;46.832;16.838;2024-03-06T14:35:07;11.70;95.50
32366;DHT22;18837;46.832;16.838;2024-03-06T14:37:34;11.70;95.60
32366;DHT22;18837;46.832;16.838;2024-03-06T14:40:15;11.70;95.50
32366;DHT22;18837;46.832;16.838;2024-03-06T14:42:43;11.70;95.60
32366;DHT22;18837;46.832;16.838;2024-03-06T14:45:10;11.70;95.50
32366;DHT22;18837;46.832;16.838;2024-03-06T14:47:36;11.70;95.20
32366;DHT22;18837;46.832;16.838;2024-03-06T14:50:02;11.70;94.90
32366;DHT22;18837;46.832;16.838;2024-03-06T14:52:28;11.60;94.70
32366;DHT22;18837;46.832;16.838;2024-03-06T14:54:54;11.60;94.70
32366;DHT22;18837;46.832;16.838;2024-03-06T14:57:20;11.60;94.70
32366;DHT22;18837;46.832;16.838;2024-03-06T14:59:47;11.60;94.70
32366;DHT22;18837;46.832;16.838;2024-03-06T15:02:13;11.60;94.60
32366;DHT22;18837;46.832;16.838;2024-03-06T15:04:40;11.60;95.20
32366;DHT22;18837;46.832;16.838;2024-03-06T15:07:07;11.60;95.00
32366;DHT22;18837;46.832;16.838;2024-03-06T15:09:33;11.60;94.80
32366;DHT22;18837;46.832;16.838;2024-03-06T15:11:59;11.60;94.90
32366;DHT22;18837;46.832;16.838;2024-03-06T15:14:44;11.60;94.80
32366;DHT22;18837;46.832;16.838;2024-03-06T15:17:34;11.60;94.80
32366;DHT22;18837;46.832;16.838;2024-03-06T15:20:05;11.50;94.80
32366;DHT22;18837;46.832;16.838;2024-03-06T15:22:35;11.50;94.50
32366;DHT22;18837;46.832;16.838;2024-03-06T15:25:10;11.50;94.40
32366;DHT22;18837;46.832;16.838;2024-03-06T15:27:37;11.50;94.30
32366;DHT22;18837;46.832;16.838;2024-03-06T15:30:10;11.50;94.50
32366;DHT22;18837;46.832;16.838;2024-03-06T15:32:38;11.50;94.40
32366;DHT22;18837;46.832;16.838;2024-03-06T15:35:04;11.50;94.50
32366;DHT22;18837;46.832;16.838;2024-03-06T15:37:30;11.40;94.50
32366;DHT22;18837;46.832;16.838;2024-03-06T15:39:57;11.40;94.60
32366;DHT22;18837;46.832;16.838;2024-03-06T15:42:24;11.40;94.40
32366;DHT22;18837;46.832;16.838;2024-03-06T15:44:51;11.40;94.10
32366;DHT22;18837;46.832;16.838;2024-03-06T15:47:18;11.40;94.30
32366;DHT22;18837;46.832;16.838;2024-03-06T15:49:54;11.40;94.20
32366;DHT22;18837;46.832;16.838;2024-03-06T15:52:33;11.40;94.10
32366;DHT22;18837;46.832;16.838;2024-03-06T15:54:59;11.30;94.00
32366;DHT22;18837;46.832;16.838;2024-03-06T15:57:25;11.30;94.20
32366;DHT22;18837;46.832;16.838;2024-03-06T15:59:51;11.30;94.30